createdAt,value
2018-11-11T00:01:09.884Z,6.44
2018-11-11T00:03:39.654Z,6.43
2018-11-11T00:06:09.820Z,6.39
2018-11-11T00:08:39.708Z,6.34
2018-11-11T00:11:09.360Z,6.33
2018-11-11T00:13:39.120Z,6.32
2018-11-11T00:16:08.871Z,6.33
2018-11-11T00:18:38.453Z,6.34
2018-11-11T00:21:07.999Z,6.34
2018-11-11T00:23:37.931Z,6.37
2018-11-11T00:26:07.806Z,6.25
2018-11-11T00:28:37.492Z,6.31
2018-11-11T00:31:07.164Z,6.36
2018-11-11T00:33:36.830Z,6.29
2018-11-11T00:36:06.661Z,6.30
2018-11-11T00:38:36.300Z,6.30
2018-11-11T00:41:06.354Z,6.24
2018-11-11T00:43:36.144Z,6.20
2018-11-11T00:46:06.038Z,6.22
2018-11-11T00:48:35.663Z,6.19
2018-11-11T00:51:05.516Z,6.20
2018-11-11T00:53:35.122Z,6.07
2018-11-11T00:56:04.873Z,6.09
2018-11-11T00:58:34.504Z,6.10
2018-11-11T01:01:04.175Z,6.10
2018-11-11T01:03:33.853Z,6.15
2018-11-11T01:06:03.591Z,6.02
2018-11-11T01:08:33.397Z,5.90
2018-11-11T01:11:03.045Z,5.85
2018-11-11T01:13:32.685Z,5.84
2018-11-11T01:16:02.443Z,5.68
2018-11-11T01:18:32.128Z,5.66
2018-11-11T01:21:01.892Z,5.64
2018-11-11T01:23:31.724Z,5.61
2018-11-11T01:26:01.386Z,5.59
2018-11-11T01:28:31.206Z,5.59
2018-11-11T01:31:00.803Z,5.53
2018-11-11T01:33:30.330Z,5.56
2018-11-11T01:36:00.386Z,5.52
2018-11-11T01:38:30.196Z,5.48
2018-11-11T01:40:59.992Z,5.47
2018-11-11T01:43:30.369Z,5.54
2018-11-11T01:46:00.257Z,5.49
2018-11-11T01:48:29.917Z,5.58
2018-11-11T01:50:59.627Z,5.64
2018-11-11T01:53:29.338Z,5.64
2018-11-11T01:55:59.143Z,5.50
2018-11-11T01:58:28.985Z,5.52
2018-11-11T02:00:58.814Z,5.61
2018-11-11T02:03:28.758Z,5.50
2018-11-11T02:05:58.626Z,5.48
2018-11-11T02:08:28.440Z,5.47
2018-11-11T02:10:58.219Z,5.42
2018-11-11T02:13:27.952Z,5.37
2018-11-11T02:15:57.745Z,5.41
2018-11-11T02:18:27.468Z,5.50
2018-11-11T02:20:57.132Z,5.37
2018-11-11T02:23:27.819Z,5.40
2018-11-11T02:25:57.382Z,5.37
2018-11-11T02:28:26.985Z,5.42
2018-11-11T02:30:56.729Z,5.32
2018-11-11T02:33:29.623Z,5.30
2018-11-11T02:35:59.307Z,5.30
2018-11-11T02:38:28.981Z,5.30
2018-11-11T02:40:58.825Z,5.27
2018-11-11T02:43:28.653Z,5.17
2018-11-11T02:45:59.445Z,5.20
2018-11-11T02:48:28.979Z,5.26
2018-11-11T02:50:58.607Z,5.22
2018-11-11T02:53:28.397Z,5.13
2018-11-11T02:55:58.177Z,5.12
2018-11-11T02:58:27.889Z,5.12
2018-11-11T03:00:58.295Z,5.14
2018-11-11T03:03:27.957Z,5.05
2018-11-11T03:05:58.827Z,5.01
2018-11-11T03:08:28.602Z,5.01
2018-11-11T03:10:59.241Z,5.00
2018-11-11T03:13:28.856Z,4.96
2018-11-11T03:15:58.591Z,4.89
2018-11-11T03:18:28.177Z,4.93
2018-11-11T03:20:57.990Z,4.97
2018-11-11T03:23:27.730Z,4.87
2018-11-11T03:25:57.559Z,4.83
2018-11-11T03:28:27.410Z,4.78
2018-11-11T03:30:57.138Z,4.82
2018-11-11T03:33:27.105Z,4.79
2018-11-11T03:35:57.161Z,4.76
2018-11-11T03:38:27.589Z,4.74
2018-11-11T03:40:57.522Z,4.71
2018-11-11T03:43:27.270Z,4.63
2018-11-11T03:45:57.229Z,4.65
2018-11-11T03:48:26.882Z,4.74
2018-11-11T03:50:56.653Z,4.68
2018-11-11T03:53:26.294Z,4.70
2018-11-11T03:55:55.954Z,4.67
2018-11-11T03:58:25.611Z,4.67
2018-11-11T04:00:55.284Z,4.69
2018-11-11T04:03:25.401Z,4.62
2018-11-11T04:05:55.092Z,4.53
2018-11-11T04:08:24.864Z,4.44
2018-11-11T04:10:55.420Z,4.47
2018-11-11T04:13:25.177Z,4.36
2018-11-11T04:15:54.848Z,4.38
2018-11-11T04:18:24.533Z,4.36
2018-11-11T04:20:54.280Z,4.38
2018-11-11T04:23:23.888Z,4.39
2018-11-11T04:25:53.589Z,4.56
2018-11-11T04:28:23.329Z,4.57
2018-11-11T04:30:53.126Z,4.53
2018-11-11T04:33:22.688Z,4.47
2018-11-11T04:35:53.467Z,4.39
2018-11-11T04:38:23.804Z,4.33
2018-11-11T04:40:53.555Z,4.34
2018-11-11T04:43:23.401Z,4.33
2018-11-11T04:45:53.021Z,4.36
2018-11-11T04:48:22.695Z,4.36
2018-11-11T04:50:52.300Z,4.27
2018-11-11T04:53:22.042Z,4.09
2018-11-11T04:55:51.808Z,4.06
2018-11-11T04:58:21.420Z,4.07
2018-11-11T05:00:51.234Z,4.04
2018-11-11T05:03:21.073Z,3.95
2018-11-11T05:05:50.593Z,3.97
2018-11-11T05:08:20.335Z,3.92
2018-11-11T05:10:50.164Z,3.95
2018-11-11T05:13:19.881Z,3.86
2018-11-11T05:15:49.722Z,3.88
2018-11-11T05:18:19.503Z,3.78
2018-11-11T05:20:49.201Z,3.78
2018-11-11T05:23:19.043Z,3.80
2018-11-11T05:25:48.863Z,3.76
2018-11-11T05:28:18.528Z,3.83
2018-11-11T05:30:48.143Z,3.86
2018-11-11T05:33:17.714Z,3.87
2018-11-11T05:35:47.452Z,3.91
2018-11-11T05:38:17.174Z,3.98
2018-11-11T05:40:46.781Z,4.07
2018-11-11T05:43:16.490Z,4.24
2018-11-11T05:45:46.334Z,4.26
2018-11-11T05:48:16.032Z,4.37
2018-11-11T05:50:46.864Z,4.38
2018-11-11T05:53:16.518Z,4.55
2018-11-11T05:55:46.197Z,4.63
2018-11-11T05:58:16.007Z,4.83
2018-11-11T06:00:45.765Z,4.89
2018-11-11T06:03:15.420Z,5.27
2018-11-11T06:05:45.225Z,5.68
2018-11-11T06:08:14.921Z,6.31
2018-11-11T06:10:44.514Z,6.74
2018-11-11T06:13:15.074Z,7.07
2018-11-11T06:15:44.904Z,7.11
2018-11-11T06:18:14.508Z,7.03
2018-11-11T06:20:44.194Z,7.10
2018-11-11T06:23:14.003Z,7.81
2018-11-11T06:25:43.712Z,7.90
2018-11-11T06:28:13.450Z,8.56
2018-11-11T06:30:43.096Z,8.72
2018-11-11T06:33:12.776Z,9.26
2018-11-11T06:35:42.409Z,9.47
2018-11-11T06:38:12.535Z,9.67
2018-11-11T06:40:42.200Z,9.55
2018-11-11T06:43:11.835Z,9.84
2018-11-11T06:45:41.605Z,10.02
2018-11-11T06:48:11.253Z,10.39
2018-11-11T06:50:40.911Z,10.82
2018-11-11T06:53:10.575Z,11.22
2018-11-11T06:55:40.996Z,11.12
2018-11-11T06:58:10.694Z,11.67
2018-11-11T07:00:40.564Z,11.91
2018-11-11T07:03:20.881Z,12.07
2018-11-11T07:05:50.408Z,12.54
2018-11-11T07:08:20.701Z,12.85
2018-11-11T07:10:50.327Z,12.85
2018-11-11T07:13:19.952Z,12.90
2018-11-11T07:15:49.734Z,12.76
2018-11-11T07:18:19.614Z,12.97
2018-11-11T07:20:49.230Z,13.17
2018-11-11T07:23:19.032Z,13.39
2018-11-11T07:25:48.677Z,13.48
2018-11-11T07:28:18.538Z,14.10
2018-11-11T07:30:48.193Z,13.94
2018-11-11T07:33:18.425Z,14.34
2018-11-11T07:35:48.169Z,14.08
2018-11-11T07:38:17.843Z,15.13
2018-11-11T07:40:47.588Z,15.64
2018-11-11T07:43:17.371Z,16.01
2018-11-11T07:45:47.108Z,14.94
2018-11-11T07:48:16.871Z,15.49
2018-11-11T07:50:46.509Z,14.47
2018-11-11T07:53:16.152Z,14.80
2018-11-11T07:55:45.899Z,14.91
2018-11-11T07:58:15.698Z,15.22
2018-11-11T08:00:45.627Z,15.38
2018-11-11T08:03:15.311Z,15.11
2018-11-11T08:05:45.947Z,14.97
2018-11-11T08:08:15.590Z,14.73
2018-11-11T08:10:56.215Z,15.08
2018-11-11T08:13:25.875Z,15.00
2018-11-11T08:15:55.645Z,14.64
2018-11-11T08:18:25.301Z,15.61
2018-11-11T08:20:55.087Z,15.21
2018-11-11T08:23:24.824Z,15.54
2018-11-11T08:25:55.177Z,16.75
2018-11-11T08:28:25.051Z,17.19
2018-11-11T08:30:54.666Z,18.25
2018-11-11T08:33:24.345Z,17.26
2018-11-11T08:35:54.085Z,17.27
2018-11-11T08:38:23.716Z,17.45
2018-11-11T08:40:53.560Z,18.10
2018-11-11T08:43:23.088Z,18.27
2018-11-11T08:45:52.829Z,18.79
2018-11-11T08:48:22.744Z,19.03
2018-11-11T08:50:52.540Z,18.82
2018-11-11T08:53:22.342Z,20.34
2018-11-11T08:55:52.165Z,18.39
2018-11-11T08:58:21.977Z,18.30
2018-11-11T09:00:51.658Z,19.39
2018-11-11T09:03:21.495Z,18.79
2018-11-11T09:05:51.061Z,18.93
2018-11-11T09:08:21.408Z,18.77
2018-11-11T09:10:51.356Z,21.22
2018-11-11T09:13:21.065Z,19.37
2018-11-11T09:15:50.824Z,20.26
2018-11-11T09:18:20.488Z,19.03
2018-11-11T09:20:50.340Z,19.33
2018-11-11T09:23:20.086Z,20.47
2018-11-11T09:25:49.709Z,20.75
2018-11-11T09:28:19.305Z,21.40
2018-11-11T09:30:48.928Z,21.44
2018-11-11T09:33:18.686Z,21.32
2018-11-11T09:35:48.864Z,20.35
2018-11-11T09:38:18.848Z,21.10
2018-11-11T09:40:48.704Z,21.57
2018-11-11T09:43:18.745Z,20.88
2018-11-11T09:45:48.290Z,20.07
2018-11-11T09:48:18.841Z,19.77
2018-11-11T09:50:48.545Z,20.76
2018-11-11T09:53:18.299Z,21.02
2018-11-11T09:55:48.072Z,21.42
2018-11-11T09:58:17.803Z,21.96
2018-11-11T10:00:47.961Z,20.99
2018-11-11T10:03:22.018Z,21.06
2018-11-11T10:05:57.991Z,21.23
2018-11-11T10:08:42.972Z,21.30
2018-11-11T10:11:17.188Z,20.85
2018-11-11T10:13:51.811Z,20.84
2018-11-11T10:16:28.276Z,21.24
2018-11-11T10:19:02.951Z,21.40
2018-11-11T10:21:41.828Z,21.10
2018-11-11T10:25:15.334Z,21.28
2018-11-11T10:27:50.574Z,22.29
2018-11-11T10:30:26.970Z,21.65
2018-11-11T10:33:11.256Z,21.10
2018-11-11T10:35:47.785Z,21.37
2018-11-11T10:38:21.256Z,21.29
2018-11-11T10:40:57.245Z,21.76
2018-11-11T10:43:32.080Z,21.92
2018-11-11T10:46:05.170Z,21.51
2018-11-11T10:48:42.023Z,21.07
2018-11-11T10:51:11.721Z,21.87
2018-11-11T10:53:41.505Z,21.25
2018-11-11T10:56:12.085Z,21.09
2018-11-11T10:58:41.836Z,21.31
2018-11-11T11:01:16.796Z,21.10
2018-11-11T11:03:46.557Z,20.85
2018-11-11T11:06:16.731Z,20.96
2018-11-11T11:08:51.657Z,22.38
2018-11-11T11:11:21.487Z,21.95
2018-11-11T11:13:51.473Z,22.36
2018-11-11T11:16:21.705Z,22.58
2018-11-11T11:18:51.369Z,21.47
2018-11-11T11:21:21.395Z,21.35
2018-11-11T11:23:51.148Z,21.70
2018-11-11T11:26:21.079Z,20.98
2018-11-11T11:28:50.958Z,21.92
2018-11-11T11:31:20.680Z,21.71
2018-11-11T11:33:50.488Z,21.63
2018-11-11T11:36:20.235Z,21.96
2018-11-11T11:38:50.180Z,21.38
2018-11-11T11:41:20.179Z,21.25
2018-11-11T11:43:49.991Z,20.97
2018-11-11T11:46:20.555Z,20.93
2018-11-11T11:48:50.297Z,21.53
2018-11-11T11:51:20.009Z,21.48
2018-11-11T11:53:49.833Z,21.69
2018-11-11T11:56:19.360Z,21.92
2018-11-11T11:58:49.118Z,22.64
2018-11-11T12:01:18.926Z,21.78
2018-11-11T12:03:48.868Z,21.35
2018-11-11T12:06:18.792Z,21.64
2018-11-11T12:08:48.453Z,20.83
2018-11-11T12:11:18.107Z,21.09
2018-11-11T12:13:48.205Z,20.80
2018-11-11T12:16:17.871Z,21.17
2018-11-11T12:18:47.517Z,21.09
2018-11-11T12:21:17.206Z,20.67
2018-11-11T12:23:46.925Z,20.06
2018-11-11T12:26:16.583Z,19.98
2018-11-11T12:28:46.251Z,19.76
2018-11-11T12:31:16.200Z,19.16
2018-11-11T12:33:46.029Z,18.63
2018-11-11T12:36:15.789Z,18.42
2018-11-11T12:38:45.667Z,18.15
2018-11-11T12:41:15.320Z,18.08
2018-11-11T12:43:45.068Z,17.82
2018-11-11T12:46:15.046Z,17.74
2018-11-11T12:48:45.869Z,17.64
2018-11-11T12:51:15.672Z,17.97
2018-11-11T12:53:45.640Z,17.73
2018-11-11T12:56:15.402Z,17.70
2018-11-11T12:58:45.232Z,17.61
2018-11-11T13:01:15.164Z,17.49
2018-11-11T13:03:44.724Z,17.64
2018-11-11T13:06:14.410Z,17.67
2018-11-11T13:08:44.046Z,17.72
2018-11-11T13:11:13.914Z,17.61
2018-11-11T13:13:43.661Z,17.50
2018-11-11T13:16:13.543Z,17.63
2018-11-11T13:18:43.386Z,17.61
2018-11-11T13:21:13.145Z,17.62
2018-11-11T13:23:42.841Z,17.54
2018-11-11T13:26:12.608Z,17.66
2018-11-11T13:28:42.363Z,17.63
2018-11-11T13:31:12.077Z,17.64
2018-11-11T13:33:41.851Z,17.53
2018-11-11T13:36:11.808Z,17.48
2018-11-11T13:38:42.617Z,17.20
2018-11-11T13:41:12.426Z,17.26
2018-11-11T13:43:42.674Z,17.39
2018-11-11T13:46:12.923Z,17.17
2018-11-11T13:48:43.182Z,17.25
2018-11-11T13:51:13.063Z,17.23
2018-11-11T13:53:42.892Z,17.20
2018-11-11T13:56:12.736Z,17.00
2018-11-11T13:58:42.624Z,17.01
2018-11-11T14:01:12.414Z,16.94
2018-11-11T14:03:41.988Z,16.84
2018-11-11T14:06:11.644Z,16.82
2018-11-11T14:08:41.410Z,16.78
2018-11-11T14:11:11.188Z,16.64
2018-11-11T14:13:40.784Z,16.57
2018-11-11T14:16:10.533Z,16.50
2018-11-11T14:18:40.468Z,16.41
2018-11-11T14:21:10.172Z,16.09
2018-11-11T14:23:40.028Z,15.87
2018-11-11T14:26:09.775Z,15.70
2018-11-11T14:28:39.630Z,15.52
2018-11-11T14:31:09.274Z,15.43
2018-11-11T14:33:38.984Z,15.37
2018-11-11T14:36:08.869Z,15.23
2018-11-11T14:38:38.865Z,15.09
2018-11-11T14:41:08.643Z,14.99
2018-11-11T14:43:38.379Z,14.77
2018-11-11T14:46:08.443Z,14.68
2018-11-11T14:48:38.058Z,14.59
2018-11-11T14:51:07.840Z,14.55
2018-11-11T14:53:37.704Z,14.44
2018-11-11T14:56:07.942Z,14.12
2018-11-11T14:58:38.760Z,13.96
2018-11-11T15:01:08.620Z,13.85
2018-11-11T15:03:38.389Z,13.84
2018-11-11T15:06:07.930Z,13.79
2018-11-11T15:08:37.703Z,13.57
2018-11-11T15:11:07.575Z,13.41
2018-11-11T15:13:37.414Z,13.18
2018-11-11T15:16:07.408Z,13.06
2018-11-11T15:18:37.330Z,13.08
2018-11-11T15:21:07.181Z,12.85
2018-11-11T15:23:36.866Z,12.83
2018-11-11T15:26:07.216Z,12.77
2018-11-11T15:28:37.017Z,12.66
2018-11-11T15:31:07.027Z,12.62
2018-11-11T15:33:36.821Z,12.43
2018-11-11T15:36:06.645Z,12.30
2018-11-11T15:38:36.330Z,12.14
2018-11-11T15:41:06.154Z,11.94
2018-11-11T15:43:35.838Z,11.79
2018-11-11T15:46:05.772Z,11.78
2018-11-11T15:48:35.366Z,11.76
2018-11-11T15:51:05.130Z,11.63
2018-11-11T15:53:35.090Z,11.55
2018-11-11T15:56:17.634Z,11.49
2018-11-11T15:58:47.479Z,11.44
2018-11-11T16:01:17.351Z,11.46
2018-11-11T16:03:47.461Z,11.46
2018-11-11T16:06:17.916Z,11.37
2018-11-11T16:08:47.668Z,11.26
2018-11-11T16:11:17.993Z,11.19
2018-11-11T16:13:47.708Z,11.15
2018-11-11T16:16:17.306Z,11.10
2018-11-11T16:18:47.183Z,11.02
2018-11-11T16:21:16.840Z,11.03
2018-11-11T16:23:47.356Z,11.05
2018-11-11T16:26:17.073Z,11.14
2018-11-11T16:28:46.815Z,11.10
2018-11-11T16:31:16.788Z,11.10
2018-11-11T16:33:46.465Z,11.04
2018-11-11T16:36:16.011Z,10.98
2018-11-11T16:38:45.724Z,11.02
2018-11-11T16:41:16.050Z,11.16
2018-11-11T16:43:45.898Z,11.20
2018-11-11T16:46:15.787Z,11.17
2018-11-11T16:48:46.231Z,11.18
2018-11-11T16:51:15.854Z,11.98
2018-11-11T16:53:45.817Z,11.54
2018-11-11T16:56:15.689Z,11.36
2018-11-11T16:58:45.268Z,11.20
2018-11-11T17:01:15.023Z,11.12
2018-11-11T17:03:44.653Z,11.05
2018-11-11T17:06:14.712Z,10.97
2018-11-11T17:08:46.109Z,10.76
2018-11-11T17:11:15.973Z,10.66
2018-11-11T17:13:45.748Z,10.54
2018-11-11T17:16:15.506Z,10.43
2018-11-11T17:18:45.399Z,10.35
2018-11-11T17:21:15.204Z,10.35
2018-11-11T17:23:44.924Z,10.33
2018-11-11T17:26:15.001Z,10.29
2018-11-11T17:28:44.849Z,10.18
2018-11-11T17:31:14.765Z,10.05
2018-11-11T17:33:45.046Z,10.01
2018-11-11T17:36:17.144Z,9.96
2018-11-11T17:38:46.920Z,9.83
2018-11-11T17:41:16.616Z,9.71
2018-11-11T17:43:46.373Z,9.61
2018-11-11T17:46:16.192Z,9.65
2018-11-11T17:48:45.854Z,9.62
2018-11-11T17:51:15.776Z,9.60
2018-11-11T17:53:45.505Z,9.52
2018-11-11T17:56:15.295Z,9.46
2018-11-11T17:58:44.986Z,9.47
2018-11-11T18:01:14.756Z,9.40
2018-11-11T18:03:44.440Z,9.42
2018-11-11T18:06:15.186Z,9.37
2018-11-11T18:08:44.848Z,9.39
2018-11-11T18:11:15.873Z,9.32
2018-11-11T18:13:45.806Z,9.24
2018-11-11T18:16:15.315Z,9.18
2018-11-11T18:18:44.923Z,9.19
2018-11-11T18:21:14.759Z,9.16
2018-11-11T18:23:44.544Z,9.08
2018-11-11T18:26:14.222Z,9.06
2018-11-11T18:28:44.030Z,9.08
2018-11-11T18:31:13.778Z,9.38
2018-11-11T18:33:43.414Z,9.10
2018-11-11T18:36:15.289Z,9.08
2018-11-11T18:38:44.954Z,8.96
2018-11-11T18:41:14.705Z,9.00
2018-11-11T18:43:44.429Z,8.87
2018-11-11T18:46:14.116Z,8.70
2018-11-11T18:48:43.948Z,8.59
2018-11-11T18:51:13.557Z,8.52
2018-11-11T18:53:43.473Z,8.42
2018-11-11T18:56:13.284Z,8.47
2018-11-11T18:58:42.856Z,8.41
2018-11-11T19:01:13.169Z,8.25
2018-11-11T19:03:42.920Z,8.33
2018-11-11T19:06:12.476Z,8.20
2018-11-11T19:08:42.341Z,8.14
2018-11-11T19:11:12.246Z,8.19
2018-11-11T19:13:42.056Z,8.19
2018-11-11T19:16:11.859Z,8.07
2018-11-11T19:18:42.292Z,8.01
2018-11-11T19:21:12.065Z,7.99
2018-11-11T19:23:41.739Z,8.00
2018-11-11T19:26:11.278Z,8.09
2018-11-11T19:28:42.144Z,7.98
2018-11-11T19:31:11.873Z,8.00
2018-11-11T19:33:41.691Z,8.23
2018-11-11T19:36:11.495Z,8.32
2018-11-11T19:38:41.137Z,8.31
2018-11-11T19:41:11.229Z,8.16
2018-11-11T19:43:42.527Z,8.11
2018-11-11T19:46:12.300Z,7.89
2018-11-11T19:48:42.117Z,7.73
2018-11-11T19:51:11.845Z,7.72
2018-11-11T19:53:41.560Z,7.59
2018-11-11T19:56:11.412Z,7.50
2018-11-11T19:58:41.076Z,7.52
2018-11-11T20:01:10.917Z,7.54
2018-11-11T20:03:40.689Z,7.56
2018-11-11T20:06:10.333Z,7.64
2018-11-11T20:08:40.165Z,7.48
2018-11-11T20:11:09.858Z,7.45
2018-11-11T20:13:39.580Z,7.50
2018-11-11T20:16:09.245Z,7.60
2018-11-11T20:18:39.093Z,7.39
2018-11-11T20:21:08.864Z,7.37
2018-11-11T20:23:38.807Z,7.39
2018-11-11T20:26:08.517Z,7.35
2018-11-11T20:28:38.134Z,7.36
2018-11-11T20:31:07.804Z,7.37
2018-11-11T20:33:37.477Z,7.40
2018-11-11T20:36:07.354Z,7.37
2018-11-11T20:38:37.355Z,7.38
2018-11-11T20:41:07.293Z,7.29
2018-11-11T20:43:37.185Z,7.24
2018-11-11T20:46:06.978Z,7.19
2018-11-11T20:48:36.787Z,7.33
2018-11-11T20:51:06.546Z,7.13
2018-11-11T20:53:36.312Z,7.01
2018-11-11T20:56:06.279Z,6.84
2018-11-11T20:58:36.037Z,6.86
2018-11-11T21:01:05.847Z,6.97
2018-11-11T21:03:37.124Z,7.08
2018-11-11T21:06:07.056Z,6.90
2018-11-11T21:08:38.252Z,6.76
2018-11-11T21:11:07.769Z,6.74
2018-11-11T21:13:37.508Z,6.76
2018-11-11T21:16:07.533Z,6.77
2018-11-11T21:18:37.598Z,6.71
2018-11-11T21:21:07.547Z,6.64
2018-11-11T21:23:37.262Z,6.58
2018-11-11T21:26:07.021Z,6.52
2018-11-11T21:28:36.746Z,6.50
2018-11-11T21:31:06.627Z,6.66
2018-11-11T21:33:37.214Z,6.62
2018-11-11T21:36:07.099Z,6.77
2018-11-11T21:38:37.059Z,6.65
2018-11-11T21:41:06.938Z,6.46
2018-11-11T21:43:37.335Z,6.49
2018-11-11T21:46:07.283Z,6.40
2018-11-11T21:48:36.889Z,6.40
2018-11-11T21:51:06.929Z,6.34
2018-11-11T21:53:41.490Z,6.33
2018-11-11T21:56:11.402Z,6.36
2018-11-11T21:58:41.363Z,6.50
2018-11-11T22:01:11.069Z,6.40
2018-11-11T22:03:41.360Z,6.40
2018-11-11T22:06:11.006Z,6.31
2018-11-11T22:08:41.627Z,6.29
2018-11-11T22:11:11.217Z,6.23
2018-11-11T22:13:40.823Z,6.26
2018-11-11T22:16:10.569Z,6.16
2018-11-11T22:18:40.415Z,6.10
2018-11-11T22:21:10.481Z,5.99
2018-11-11T22:23:40.513Z,6.02
2018-11-11T22:26:10.100Z,6.19
2018-11-11T22:28:39.901Z,6.09
2018-11-11T22:31:09.676Z,6.10
2018-11-11T22:33:39.898Z,5.99
2018-11-11T22:36:09.632Z,6.12
2018-11-11T22:38:39.312Z,6.08
2018-11-11T22:41:09.047Z,5.89
2018-11-11T22:43:38.751Z,5.94
2018-11-11T22:46:08.597Z,5.95
2018-11-11T22:48:38.438Z,5.88
2018-11-11T22:51:08.710Z,5.83
2018-11-11T22:53:38.422Z,5.86
2018-11-11T22:56:08.557Z,5.73
2018-11-11T22:58:38.287Z,5.68
2018-11-11T23:01:13.014Z,5.57
2018-11-11T23:03:42.780Z,5.54
2018-11-11T23:06:12.565Z,5.59
2018-11-11T23:08:42.182Z,5.57
2018-11-11T23:11:11.822Z,5.65
2018-11-11T23:13:41.376Z,5.61
2018-11-11T23:16:11.109Z,5.53
2018-11-11T23:18:40.975Z,5.63
2018-11-11T23:21:11.160Z,5.52
2018-11-11T23:23:40.825Z,5.49
2018-11-11T23:26:11.042Z,5.47
2018-11-11T23:28:40.847Z,5.37
2018-11-11T23:31:10.517Z,5.31
2018-11-11T23:33:40.083Z,5.28
2018-11-11T23:36:09.877Z,5.11
2018-11-11T23:38:39.541Z,5.03
2018-11-11T23:41:12.842Z,4.94
2018-11-11T23:43:42.674Z,5.10
2018-11-11T23:46:13.340Z,5.03
2018-11-11T23:48:43.016Z,4.96
2018-11-11T23:51:14.733Z,4.90
2018-11-11T23:53:44.490Z,4.88
2018-11-11T23:56:14.180Z,4.87
2018-11-11T23:58:43.924Z,4.95
